バンギ の空港の天気 - METARとTAF

バンギ・ムポコ国際空港 ( FEFF / BGF ) - 中央アフリカ バンギ
飛行場実況気象(Metar)
観測時間12/01 15:00 WAT (12/01 14:00 UTC)
風向・風速- -
視程10km以上
天気現象
少しの雲 雲底高度 610m
気温36℃
湿度33%
気圧1007hPa
METARFEFF 011400Z 330/5KT 9999 FEW020 36/17 Q1007 NOSIG
過去の天気等 Google飛行場航空写真 Wunderground天気予報

過去48時間のMETAR

飛行場予報(TAF)
発表時間: 12/02 00:00 WAT (12/01 23:00 UTC)
予報対象時間: 2日1時 WAT ~ 3日7時 WAT
風向・風速静穏
視程6000m
なし
2日5時 WAT ~ 2日8時 WAT に 確率 30% で一時的に
視程4000m
天気現象もや
2日8時 WAT ~ 2日10時 WAT に徐々に
風向・風速北東 5m/s
2日16時 WAT ~ 2日18時 WAT に徐々に
風向・風速不定 1m/s
視程4000m
天気現象煙霧煙
2日21時 WAT ~ 2日23時 WAT に徐々に
視程10km以上
なし
TAF FEFF 012300Z 0200/0306 00000KT 6000 NSC
PROB30 TEMPO 0204/0207 4000 BR
BECMG 0207/0209 04010KT
BECMG 0215/0217 VRB02KT 4000 HZFU
BECMG 0220/0222 CAVOK